AEROCLUB DE PEZENAS
AEROPORT DE BEZIERS CAP D'AGDE
34420 PORTIRAGNES
TEL: 04.67.01.57.94
contact@aeroclub-pezenas.com
WINDOW MODE | FULLSCREEN MODE
2018/05/23 12:00 LFMU 231200Z AUTO 18007KT 130V210 9999 ///CB 22/15 Q1017 NOSIG
DOCUMENTS OFFICIELS

REGLEMENT INTERIEUR STATUTS AGO 28/06/2015 COMPTE RENDU DU COMMITE DIRECTEUR - 03/04/2016